createdAt,value
2023-04-27T00:00:34.814Z,173.65
2023-04-27T00:01:30.002Z,169.93
2023-04-27T00:02:25.227Z,168.90
2023-04-27T00:03:20.654Z,170.63
2023-04-27T00:04:15.532Z,170.80
2023-04-27T00:05:10.684Z,172.57
2023-04-27T00:06:05.876Z,173.11
2023-04-27T00:07:00.900Z,175.10
2023-04-27T00:07:56.046Z,172.39
2023-04-27T00:08:51.239Z,171.86
2023-04-27T00:09:46.489Z,173.29
2023-04-27T00:10:41.551Z,173.83
2023-04-27T00:11:36.689Z,174.37
2023-04-27T00:12:31.869Z,173.11
2023-04-27T00:13:27.197Z,176.03
2023-04-27T00:14:22.128Z,174.55
2023-04-27T00:15:17.256Z,173.83
2023-04-27T00:16:12.597Z,172.39
2023-04-27T00:17:07.656Z,171.33
2023-04-27T00:18:02.893Z,167.88
2023-04-27T00:18:57.956Z,166.88
2023-04-27T00:19:53.114Z,165.88
2023-04-27T00:20:48.298Z,164.09
2023-04-27T00:21:43.459Z,162.33
2023-04-27T00:22:38.633Z,158.93
2023-04-27T00:23:33.784Z,156.40
2023-04-27T00:24:28.993Z,153.66
2023-04-27T00:25:24.101Z,153.10
2023-04-27T00:26:19.399Z,151.84
2023-04-27T00:27:14.418Z,151.98
2023-04-27T00:28:09.755Z,151.84
2023-04-27T00:29:04.618Z,152.54
2023-04-27T00:29:59.782Z,154.80
2023-04-27T00:30:54.912Z,157.73
2023-04-27T00:31:50.119Z,161.54
2023-04-27T00:32:45.243Z,163.76
2023-04-27T00:33:40.541Z,162.80
2023-04-27T00:34:35.578Z,167.04
2023-04-27T00:35:30.744Z,167.54
2023-04-27T00:36:25.997Z,166.54
2023-04-27T00:37:21.048Z,164.41
2023-04-27T00:38:16.219Z,161.23
2023-04-27T00:39:11.451Z,161.08
2023-04-27T00:40:06.409Z,157.43
2023-04-27T00:41:01.575Z,156.84
2023-04-27T00:41:56.738Z,156.40
2023-04-27T00:42:51.889Z,155.52
2023-04-27T00:43:47.032Z,156.54
2023-04-27T00:44:42.215Z,157.43
2023-04-27T00:45:37.350Z,158.63
2023-04-27T00:46:32.747Z,162.96
2023-04-27T00:47:27.713Z,168.22
2023-04-27T00:48:23.028Z,172.39
2023-04-27T00:49:17.901Z,175.29
2023-04-27T00:50:13.064Z,180.40
2023-04-27T00:51:08.193Z,181.78
2023-04-27T00:52:03.372Z,183.99
2023-04-27T00:52:58.597Z,185.83
2023-04-27T00:53:53.737Z,185.10
2023-04-27T00:54:48.907Z,190.25
2023-04-27T00:55:44.085Z,189.70
2023-04-27T00:56:39.354Z,188.94
2023-04-27T00:57:34.440Z,187.00
2023-04-27T00:58:29.779Z,188.18
2023-04-27T00:59:24.855Z,188.50
2023-04-27T01:00:20.020Z,190.25
2023-04-27T01:01:15.222Z,188.72
2023-04-27T01:02:10.375Z,186.04
2023-04-27T01:03:05.813Z,185.42
2023-04-27T01:04:00.834Z,182.98
2023-04-27T01:04:55.814Z,181.78
2023-04-27T01:05:50.924Z,180.40
2023-04-27T01:06:46.348Z,180.02
2023-04-27T01:07:41.250Z,181.39
2023-04-27T01:08:36.442Z,183.58
2023-04-27T01:09:31.579Z,185.41
2023-04-27T01:10:26.820Z,190.14
2023-04-27T01:11:22.022Z,193.73
2023-04-27T01:12:17.196Z,193.96
2023-04-27T01:13:12.355Z,195.46
2023-04-27T01:14:07.535Z,198.06
2023-04-27T01:15:02.681Z,201.71
2023-04-27T01:15:57.835Z,204.61
2023-04-27T01:16:53.135Z,205.50
2023-04-27T01:17:48.318Z,206.54
2023-04-27T01:18:43.322Z,210.24
2023-04-27T01:19:38.513Z,208.64
2023-04-27T01:20:33.638Z,206.02
2023-04-27T01:21:28.812Z,201.22
2023-04-27T01:22:23.996Z,201.71
2023-04-27T01:23:19.325Z,199.38
2023-04-27T01:24:14.338Z,198.54
2023-04-27T01:25:09.521Z,197.94
2023-04-27T01:26:04.660Z,197.94
2023-04-27T01:26:59.971Z,198.06
2023-04-27T01:27:55.093Z,194.65
2023-04-27T01:28:50.212Z,194.54
2023-04-27T01:29:45.370Z,194.31
2023-04-27T01:30:40.526Z,191.47
2023-04-27T01:31:35.746Z,192.03
2023-04-27T01:32:31.006Z,192.60
2023-04-27T01:33:25.979Z,195.93
2023-04-27T01:34:21.209Z,198.42
2023-04-27T01:35:16.347Z,201.71
2023-04-27T01:36:11.530Z,205.37
2023-04-27T01:37:06.788Z,208.90
2023-04-27T01:38:01.926Z,211.05
2023-04-27T01:38:56.919Z,213.80
2023-04-27T01:39:52.107Z,215.21
2023-04-27T01:40:47.232Z,216.06
2023-04-27T01:41:42.405Z,216.49
2023-04-27T01:42:37.743Z,217.20
2023-04-27T01:43:32.793Z,215.63
2023-04-27T01:44:27.940Z,212.83
2023-04-27T01:45:23.155Z,210.65
2023-04-27T01:46:18.334Z,209.17
2023-04-27T01:47:13.771Z,209.57
2023-04-27T01:48:08.697Z,211.74
2023-04-27T01:49:03.872Z,213.94
2023-04-27T01:49:59.028Z,212.28
2023-04-27T01:50:54.198Z,212.28
2023-04-27T01:51:49.325Z,213.80
2023-04-27T01:52:44.700Z,212.28
2023-04-27T01:53:39.712Z,210.24
2023-04-27T01:54:34.896Z,210.38
2023-04-27T01:55:30.063Z,211.60
2023-04-27T01:56:25.211Z,212.01
2023-04-27T01:57:20.631Z,213.53
2023-04-27T01:58:15.523Z,211.33
2023-04-27T01:59:10.680Z,213.53
2023-04-27T02:00:05.843Z,211.46
2023-04-27T02:01:00.980Z,210.92
2023-04-27T02:01:56.143Z,207.45
2023-04-27T02:02:51.495Z,206.54
2023-04-27T02:03:46.722Z,206.02
2023-04-27T02:04:41.644Z,206.80
2023-04-27T02:05:36.692Z,209.97
2023-04-27T02:06:31.832Z,214.79
2023-04-27T02:07:27.218Z,218.94
2023-04-27T02:08:22.229Z,221.30
2023-04-27T02:09:17.395Z,226.50
2023-04-27T02:10:12.568Z,230.64
2023-04-27T02:11:07.720Z,232.10
2023-04-27T02:12:03.079Z,232.60
2023-04-27T02:12:57.965Z,231.61
2023-04-27T02:13:53.102Z,225.87
2023-04-27T02:14:48.262Z,225.25
2023-04-27T02:15:43.488Z,224.48
2023-04-27T02:16:38.697Z,220.41
2023-04-27T02:17:34.056Z,219.09
2023-04-27T02:18:28.849Z,219.23
2023-04-27T02:19:23.972Z,217.63
2023-04-27T02:20:19.159Z,220.26
2023-04-27T02:21:14.307Z,218.79
2023-04-27T02:22:09.484Z,216.34
2023-04-27T02:23:04.514Z,217.20
2023-04-27T02:23:59.683Z,219.38
2023-04-27T02:24:54.865Z,222.65
2023-04-27T02:25:50.019Z,220.41
2023-04-27T02:26:45.300Z,217.49
2023-04-27T02:27:40.460Z,216.63
2023-04-27T02:28:35.463Z,215.21
2023-04-27T02:29:30.711Z,215.91
2023-04-27T02:30:25.736Z,215.21
2023-04-27T02:31:20.925Z,214.22
2023-04-27T02:32:16.062Z,212.70
2023-04-27T02:33:11.282Z,212.42
2023-04-27T02:34:06.421Z,211.74
2023-04-27T02:35:01.601Z,212.42
2023-04-27T02:35:56.757Z,213.67
2023-04-27T02:36:52.112Z,211.33
2023-04-27T02:37:47.103Z,209.30
2023-04-27T02:38:42.169Z,209.04
2023-04-27T02:39:37.309Z,207.32
2023-04-27T02:40:32.493Z,208.11
2023-04-27T02:41:27.623Z,209.30
2023-04-27T02:42:22.814Z,206.28
2023-04-27T02:43:17.828Z,204.99
2023-04-27T02:44:13.008Z,204.86
2023-04-27T02:45:08.168Z,205.37
2023-04-27T02:46:03.352Z,207.19
2023-04-27T02:46:58.711Z,209.44
2023-04-27T02:47:53.943Z,209.17
2023-04-27T02:48:48.864Z,213.11
2023-04-27T02:49:44.167Z,215.77
2023-04-27T02:50:39.329Z,217.63
2023-04-27T02:51:34.623Z,216.06
2023-04-27T02:52:29.601Z,215.35
2023-04-27T02:53:24.776Z,212.01
2023-04-27T02:54:19.911Z,208.90
2023-04-27T02:55:15.060Z,208.37
2023-04-27T02:56:10.202Z,205.50
2023-04-27T02:57:05.531Z,199.02
2023-04-27T02:58:00.667Z,192.03
2023-04-27T02:58:55.778Z,187.53
2023-04-27T02:59:50.846Z,186.04
2023-04-27T03:00:46.248Z,184.99
2023-04-27T03:01:41.288Z,190.25
2023-04-27T03:02:36.475Z,194.31
2023-04-27T03:03:31.622Z,196.16
2023-04-27T03:04:26.637Z,198.66
2023-04-27T03:05:21.844Z,201.22
2023-04-27T03:06:17.048Z,203.59
2023-04-27T03:07:12.050Z,205.63
2023-04-27T03:08:07.242Z,204.99
2023-04-27T03:09:02.387Z,205.37
2023-04-27T03:09:57.548Z,208.64
2023-04-27T03:10:52.711Z,207.19
2023-04-27T03:11:48.068Z,207.98
2023-04-27T03:12:43.049Z,209.04
2023-04-27T03:13:38.226Z,210.78
2023-04-27T03:14:33.365Z,211.19
2023-04-27T03:15:28.703Z,214.79
2023-04-27T03:16:23.729Z,216.49
2023-04-27T03:17:18.856Z,217.92
2023-04-27T03:18:14.030Z,213.67
2023-04-27T03:19:09.216Z,208.11
2023-04-27T03:20:04.352Z,203.09
2023-04-27T03:20:59.535Z,196.75
2023-04-27T03:21:54.845Z,195.93
2023-04-27T03:22:49.878Z,196.75
2023-04-27T03:23:45.031Z,196.52
2023-04-27T03:24:40.224Z,199.38
2023-04-27T03:25:35.552Z,202.21
2023-04-27T03:26:30.801Z,156.10
2023-04-27T03:27:25.787Z,154.51
2023-04-27T03:28:20.996Z,158.78
2023-04-27T03:29:16.167Z,163.44
2023-04-27T03:30:11.329Z,174.19
2023-04-27T03:31:06.489Z,185.21
2023-04-27T03:32:01.889Z,192.15
2023-04-27T03:32:56.811Z,201.96
2023-04-27T03:33:52.088Z,207.06
2023-04-27T03:34:47.198Z,207.85
2023-04-27T03:35:42.509Z,207.98
2023-04-27T03:36:37.720Z,211.19
2023-04-27T03:37:32.772Z,209.30
2023-04-27T03:38:27.930Z,209.71
2023-04-27T03:39:23.107Z,208.24
2023-04-27T03:40:18.231Z,209.97
2023-04-27T03:41:13.479Z,210.24
2023-04-27T03:42:08.601Z,209.71
2023-04-27T03:43:03.750Z,207.45
2023-04-27T03:43:59.006Z,207.71
2023-04-27T03:44:54.126Z,208.11
2023-04-27T03:45:49.628Z,206.15
2023-04-27T03:46:44.464Z,205.63
2023-04-27T03:47:39.699Z,202.58
2023-04-27T03:48:34.800Z,190.80
2023-04-27T03:49:30.031Z,183.38
2023-04-27T03:50:25.271Z,183.18
2023-04-27T03:51:20.393Z,185.94
2023-04-27T03:52:16.934Z,187.21
2023-04-27T03:53:11.193Z,188.61
2023-04-27T03:54:06.005Z,190.91
2023-04-27T03:55:01.207Z,193.28
2023-04-27T03:55:56.599Z,193.39
2023-04-27T03:56:51.683Z,186.45
2023-04-27T03:57:46.915Z,186.04
2023-04-27T03:58:42.137Z,181.19
2023-04-27T03:59:37.390Z,183.38
2023-04-27T04:00:32.597Z,188.07
2023-04-27T04:01:27.864Z,193.16
2023-04-27T04:02:23.170Z,196.16
2023-04-27T04:03:18.480Z,196.40
2023-04-27T04:04:13.678Z,198.30
2023-04-27T04:05:08.982Z,197.11
2023-04-27T04:06:04.990Z,195.23
2023-04-27T04:06:59.453Z,192.37
2023-04-27T04:07:54.740Z,192.03
2023-04-27T04:08:50.044Z,190.25
2023-04-27T04:09:45.297Z,188.94
2023-04-27T04:10:40.590Z,186.36
2023-04-27T04:11:35.936Z,185.83
2023-04-27T04:12:31.147Z,184.89
2023-04-27T04:13:26.565Z,183.58
2023-04-27T04:14:21.757Z,182.98
2023-04-27T04:15:17.087Z,184.19
2023-04-27T04:16:12.628Z,183.18
2023-04-27T04:17:07.916Z,181.19
2023-04-27T04:18:03.141Z,179.05
2023-04-27T04:18:58.392Z,177.90
2023-04-27T04:19:53.721Z,179.63
2023-04-27T04:20:49.245Z,181.39
2023-04-27T04:21:44.378Z,182.18
2023-04-27T04:22:39.743Z,181.19
2023-04-27T04:23:34.929Z,182.58
2023-04-27T04:24:30.315Z,160.46
2023-04-27T04:25:25.479Z,141.18
2023-04-27T04:26:21.107Z,139.18
2023-04-27T04:27:16.117Z,140.59
2023-04-27T04:28:11.453Z,148.86
2023-04-27T04:29:07.958Z,156.25
2023-04-27T04:30:02.104Z,163.44
2023-04-27T04:30:57.322Z,168.73
2023-04-27T04:31:52.751Z,174.19
2023-04-27T04:32:47.892Z,182.18
2023-04-27T04:33:43.198Z,186.79
2023-04-27T04:34:38.401Z,188.18
2023-04-27T04:35:33.938Z,188.72
2023-04-27T04:36:29.004Z,188.94
2023-04-27T04:37:24.340Z,189.37
2023-04-27T04:38:19.737Z,189.04
2023-04-27T04:39:15.381Z,187.00
2023-04-27T04:40:10.469Z,187.00
2023-04-27T04:41:05.992Z,185.83
2023-04-27T04:42:01.084Z,179.63
2023-04-27T04:42:56.437Z,177.34
2023-04-27T04:43:51.941Z,177.53
2023-04-27T04:44:47.226Z,160.77
2023-04-27T04:45:42.829Z,128.56
2023-04-27T04:46:38.011Z,127.87
2023-04-27T04:47:33.300Z,132.97
2023-04-27T04:48:28.702Z,136.22
2023-04-27T04:49:23.970Z,134.47
2023-04-27T04:50:19.404Z,137.01
2023-04-27T04:51:14.662Z,141.78
2023-04-27T04:52:10.100Z,147.16
2023-04-27T04:53:05.539Z,150.61
2023-04-27T04:55:24.762Z,147.03
2023-04-27T04:56:22.817Z,149.80
2023-04-27T04:57:15.400Z,151.71
2023-04-27T04:58:10.857Z,144.11
2023-04-27T04:59:06.216Z,144.61
2023-04-27T05:00:01.618Z,149.93
2023-04-27T05:00:56.915Z,153.52
2023-04-27T05:01:52.457Z,158.03
2023-04-27T05:02:47.784Z,160.46
2023-04-27T05:03:43.322Z,162.17
2023-04-27T05:04:38.695Z,160.46
2023-04-27T05:05:34.174Z,157.58
2023-04-27T05:06:29.354Z,153.66
2023-04-27T05:07:25.154Z,152.26
2023-04-27T05:08:20.266Z,150.74
2023-04-27T05:09:15.802Z,149.26
2023-04-27T05:10:11.275Z,153.80
2023-04-27T05:11:06.575Z,153.38
2023-04-27T05:12:01.972Z,153.24
2023-04-27T05:12:57.261Z,153.10
2023-04-27T05:13:52.575Z,150.07
2023-04-27T05:14:48.044Z,148.73
2023-04-27T05:15:43.887Z,146.25
2023-04-27T05:16:39.111Z,144.23
2023-04-27T05:17:34.353Z,141.66
2023-04-27T05:18:29.696Z,140.70
2023-04-27T05:19:25.042Z,139.29
2023-04-27T05:20:20.804Z,138.14
2023-04-27T05:21:15.804Z,136.78
2023-04-27T05:22:11.273Z,133.93
2023-04-27T05:23:06.690Z,109.14
2023-04-27T05:24:02.071Z,104.04
2023-04-27T05:24:57.380Z,110.73
2023-04-27T05:25:53.144Z,114.06
2023-04-27T05:26:48.201Z,113.91
2023-04-27T05:27:43.651Z,114.61
2023-04-27T05:28:39.083Z,117.52
2023-04-27T05:29:34.448Z,120.75
2023-04-27T05:30:29.787Z,123.79
2023-04-27T05:31:25.188Z,126.61
2023-04-27T05:32:20.463Z,129.06
2023-04-27T05:33:15.924Z,129.86
2023-04-27T05:34:11.243Z,123.52
2023-04-27T05:35:06.831Z,108.93
2023-04-27T05:36:02.153Z,109.21
2023-04-27T05:36:57.565Z,110.88
2023-04-27T05:37:52.897Z,114.38
2023-04-27T05:38:48.272Z,116.70
2023-04-27T05:39:43.561Z,118.18
2023-04-27T05:40:39.234Z,113.75
2023-04-27T05:41:34.431Z,83.41
2023-04-27T05:42:29.930Z,66.79
2023-04-27T05:43:25.266Z,56.71
2023-04-27T05:44:20.667Z,56.90
2023-04-27T05:45:16.159Z,60.62
2023-04-27T05:46:11.669Z,66.05
2023-04-27T05:47:06.800Z,71.91
2023-04-27T05:48:02.255Z,77.81
2023-04-27T05:48:58.074Z,82.10
2023-04-27T05:49:53.119Z,85.72
2023-04-27T05:50:48.461Z,89.49
2023-04-27T05:51:43.779Z,92.37
2023-04-27T05:52:38.997Z,94.71
2023-04-27T05:53:34.448Z,97.19
2023-04-27T05:54:29.761Z,99.27
2023-04-27T05:55:25.270Z,101.26
2023-04-27T05:56:20.717Z,102.95
2023-04-27T05:57:16.077Z,104.10
2023-04-27T05:58:11.434Z,105.28
2023-04-27T05:59:07.177Z,105.75
2023-04-27T06:00:02.398Z,106.97
2023-04-27T06:00:57.940Z,101.57
2023-04-27T06:01:53.250Z,95.90
2023-04-27T06:02:48.735Z,96.85
2023-04-27T06:03:44.184Z,100.65
2023-04-27T06:04:39.423Z,103.14
2023-04-27T06:05:34.968Z,103.78
2023-04-27T06:06:30.368Z,105.55
2023-04-27T06:07:25.549Z,107.18
2023-04-27T06:08:21.071Z,109.71
2023-04-27T06:09:16.619Z,110.73
2023-04-27T06:10:11.901Z,112.60
2023-04-27T06:11:07.375Z,114.06
2023-04-27T06:12:02.592Z,115.40
2023-04-27T06:12:58.003Z,117.60
2023-04-27T06:13:53.449Z,116.45
2023-04-27T06:14:48.774Z,115.01
2023-04-27T06:15:44.404Z,113.14
2023-04-27T06:16:39.594Z,110.88
2023-04-27T06:17:35.011Z,110.08
2023-04-27T06:18:30.275Z,110.95
2023-04-27T06:19:25.856Z,113.44
2023-04-27T06:20:21.057Z,118.35
2023-04-27T06:21:16.667Z,121.63
2023-04-27T06:22:11.865Z,124.44
2023-04-27T06:23:07.313Z,123.43
2023-04-27T06:24:02.742Z,123.98
2023-04-27T06:24:58.328Z,121.10
2023-04-27T06:25:53.661Z,118.43
2023-04-27T06:26:49.246Z,116.05
2023-04-27T06:27:44.437Z,108.22
2023-04-27T06:28:39.926Z,109.36
2023-04-27T06:29:35.481Z,112.30
2023-04-27T06:30:30.771Z,115.81
2023-04-27T06:31:26.195Z,122.52
2023-04-27T06:32:21.559Z,124.07
2023-04-27T06:33:17.006Z,122.88
2023-04-27T06:34:12.478Z,122.97
2023-04-27T06:35:07.798Z,123.70
2023-04-27T06:36:03.243Z,125.56
2023-04-27T06:36:58.697Z,125.56
2023-04-27T06:37:54.073Z,129.86
2023-04-27T06:38:49.461Z,134.04
2023-04-27T06:39:45.115Z,137.46
2023-04-27T06:40:40.529Z,143.36
2023-04-27T06:41:36.025Z,150.07
2023-04-27T06:42:31.348Z,152.82
2023-04-27T06:43:26.845Z,153.10
2023-04-27T06:44:22.168Z,155.38
2023-04-27T06:45:17.493Z,149.40
2023-04-27T06:46:12.844Z,147.03
2023-04-27T06:47:08.391Z,150.47
2023-04-27T06:48:03.842Z,151.71
2023-04-27T06:48:59.204Z,155.96
2023-04-27T06:49:54.510Z,160.46
2023-04-27T06:50:50.181Z,163.12
2023-04-27T06:51:45.683Z,166.71
2023-04-27T06:52:40.947Z,173.11
2023-04-27T06:53:36.294Z,178.48
2023-04-27T06:54:31.796Z,182.58
2023-04-27T06:55:27.276Z,184.89
2023-04-27T06:56:22.788Z,186.66
2023-04-27T06:57:18.143Z,180.21
2023-04-27T06:58:13.785Z,180.60
2023-04-27T06:59:09.242Z,184.39
2023-04-27T07:00:04.768Z,186.87
2023-04-27T07:01:00.283Z,181.39
2023-04-27T07:01:55.865Z,176.03
2023-04-27T07:02:51.163Z,172.39
2023-04-27T07:03:46.897Z,157.73
2023-04-27T07:04:42.190Z,126.81
2023-04-27T07:05:37.747Z,123.43
2023-04-27T07:06:33.548Z,129.06
2023-04-27T07:07:28.526Z,134.79
2023-04-27T07:08:23.845Z,94.89
2023-04-27T07:09:27.038Z,86.26
2023-04-27T07:10:15.680Z,97.25
2023-04-27T07:11:10.249Z,111.10
2023-04-27T07:12:05.454Z,123.52
2023-04-27T07:13:01.026Z,137.57
2023-04-27T07:13:56.512Z,132.76
2023-04-27T07:14:51.964Z,126.32
2023-04-27T07:15:47.427Z,118.02
2023-04-27T07:16:43.046Z,100.83
2023-04-27T07:17:38.321Z,88.64
2023-04-27T07:18:33.656Z,79.59
2023-04-27T07:19:29.006Z,54.06
2023-04-27T07:20:24.328Z,43.55
2023-04-27T07:21:19.761Z,48.84
2023-04-27T07:22:15.072Z,56.14
2023-04-27T07:23:10.288Z,60.14
2023-04-27T07:24:05.696Z,55.17
2023-04-27T07:25:01.184Z,55.28
2023-04-27T07:25:56.465Z,55.54
2023-04-27T07:26:52.232Z,57.77
2023-04-27T07:27:47.496Z,61.29
2023-04-27T07:28:43.052Z,65.73
2023-04-27T07:29:38.413Z,64.66
2023-04-27T07:30:33.863Z,69.98
2023-04-27T07:31:29.363Z,76.25
2023-04-27T07:32:24.766Z,78.91
2023-04-27T07:33:20.262Z,76.04
2023-04-27T07:34:15.825Z,71.66
2023-04-27T07:35:11.296Z,73.95
2023-04-27T07:36:06.877Z,81.14
2023-04-27T07:37:02.109Z,84.25
2023-04-27T07:37:57.614Z,79.97
2023-04-27T07:38:52.848Z,82.18
2023-04-27T07:39:48.370Z,85.20
2023-04-27T07:40:44.862Z,87.07
2023-04-27T07:41:39.309Z,84.85
2023-04-27T07:42:34.750Z,81.70
2023-04-27T07:43:30.197Z,75.08
2023-04-27T07:44:25.590Z,80.82
2023-04-27T07:45:21.303Z,79.74
2023-04-27T07:46:17.062Z,96.63
2023-04-27T07:47:12.336Z,113.99
2023-04-27T07:48:07.737Z,126.23
2023-04-27T07:49:03.200Z,128.96
2023-04-27T07:49:58.528Z,126.13
2023-04-27T07:50:54.250Z,123.61
2023-04-27T07:51:49.525Z,114.69
2023-04-27T07:52:45.024Z,114.06
2023-04-27T07:53:40.405Z,112.37
2023-04-27T07:54:35.919Z,109.07
2023-04-27T07:55:31.393Z,107.59
2023-04-27T07:56:27.053Z,112.60
2023-04-27T07:57:22.260Z,105.82
2023-04-27T07:58:17.757Z,100.71
2023-04-27T07:59:13.473Z,113.75
2023-04-27T08:00:08.726Z,114.38
2023-04-27T08:01:04.498Z,120.31
2023-04-27T08:02:11.237Z,126.23
2023-04-27T08:02:56.249Z,123.61
2023-04-27T08:03:50.818Z,130.37
2023-04-27T08:04:46.642Z,134.25
2023-04-27T08:05:42.323Z,125.47
2023-04-27T08:06:37.925Z,119.37
2023-04-27T08:07:32.950Z,115.48
2023-04-27T08:08:28.168Z,100.53
2023-04-27T08:09:23.633Z,94.03
2023-04-27T08:10:19.026Z,97.30
2023-04-27T08:11:14.908Z,107.94
2023-04-27T08:12:10.250Z,116.45
2023-04-27T08:13:05.614Z,120.84
2023-04-27T08:14:01.124Z,122.79
2023-04-27T08:14:56.469Z,124.16
2023-04-27T08:15:51.952Z,128.96
2023-04-27T08:16:47.550Z,132.65
2023-04-27T08:17:42.892Z,139.06
2023-04-27T08:18:38.411Z,141.78
2023-04-27T08:19:33.758Z,137.23
2023-04-27T08:20:29.282Z,137.23
2023-04-27T08:21:24.463Z,151.57
2023-04-27T08:22:19.973Z,156.25
2023-04-27T08:23:15.272Z,161.23
2023-04-27T08:24:10.916Z,172.57
2023-04-27T08:25:06.242Z,183.18
2023-04-27T08:26:01.900Z,195.35
2023-04-27T08:26:57.118Z,218.21
2023-04-27T08:27:52.616Z,227.91
2023-04-27T08:28:48.097Z,236.62
2023-04-27T08:29:43.596Z,243.65
2023-04-27T08:30:39.217Z,247.14
2023-04-27T08:31:34.591Z,265.54
2023-04-27T08:32:30.126Z,278.38
2023-04-27T08:33:25.585Z,292.79
2023-04-27T08:34:21.170Z,297.57
2023-04-27T08:35:16.864Z,304.19
2023-04-27T08:36:12.168Z,296.23
2023-04-27T08:37:07.792Z,301.40
2023-04-27T08:38:03.131Z,311.41
2023-04-27T08:38:58.521Z,318.67
2023-04-27T08:39:54.030Z,318.05
2023-04-27T08:40:49.520Z,307.04
2023-04-27T08:41:45.152Z,311.11
2023-04-27T08:42:40.721Z,318.67
2023-04-27T08:43:36.256Z,334.93
2023-04-27T08:44:31.904Z,357.95
2023-04-27T08:45:27.257Z,399.30
2023-04-27T08:46:22.828Z,419.66
2023-04-27T08:47:23.547Z,438.42
2023-04-27T08:48:14.569Z,445.74
2023-04-27T08:49:09.079Z,459.89
2023-04-27T08:50:04.680Z,441.03
2023-04-27T08:50:59.863Z,472.93
2023-04-27T08:51:55.215Z,495.79
2023-04-27T08:52:50.668Z,520.56
2023-04-27T08:53:45.928Z,539.51
2023-04-27T08:54:41.414Z,527.98
2023-04-27T08:55:36.922Z,493.22
2023-04-27T08:56:32.403Z,516.53
2023-04-27T08:57:27.823Z,526.31
2023-04-27T08:58:23.295Z,526.31
2023-04-27T08:59:19.055Z,531.34
2023-04-27T09:00:14.531Z,555.23
2023-04-27T09:01:09.782Z,567.52
2023-04-27T09:02:05.388Z,576.35
2023-04-27T09:03:00.935Z,581.88
2023-04-27T09:03:56.549Z,578.35
2023-04-27T09:04:52.149Z,498.75
2023-04-27T09:06:00.663Z,517.73
2023-04-27T09:06:43.786Z,517.33
2023-04-27T09:07:38.159Z,469.93
2023-04-27T09:08:33.936Z,450.87
2023-04-27T09:09:29.011Z,465.02
2023-04-27T09:10:24.676Z,487.81
2023-04-27T09:11:20.045Z,506.71
2023-04-27T09:12:15.590Z,495.79
2023-04-27T09:13:10.929Z,528.81
2023-04-27T09:14:06.437Z,556.62
2023-04-27T09:15:01.790Z,592.21
2023-04-27T09:15:57.294Z,608.42
2023-04-27T09:16:52.730Z,679.75
2023-04-27T09:17:48.273Z,698.26
2023-04-27T09:18:43.932Z,736.83
2023-04-27T09:19:39.416Z,713.95
2023-04-27T09:20:34.737Z,653.12
2023-04-27T09:21:30.109Z,620.89
2023-04-27T09:22:25.349Z,591.69
2023-04-27T09:23:20.731Z,578.85
2023-04-27T09:24:16.256Z,531.77
2023-04-27T09:25:11.764Z,582.39
2023-04-27T09:26:07.252Z,658.93
2023-04-27T09:27:02.742Z,696.07
2023-04-27T09:27:58.469Z,734.40
2023-04-27T09:28:53.442Z,746.73
2023-04-27T09:29:49.090Z,761.99
2023-04-27T09:30:44.457Z,768.12
2023-04-27T09:31:40.093Z,795.59
2023-04-27T09:32:35.335Z,789.47
2023-04-27T09:33:30.736Z,796.54
2023-04-27T09:34:26.120Z,830.22
2023-04-27T09:35:21.620Z,805.67
2023-04-27T09:36:16.844Z,754.24
2023-04-27T09:37:12.318Z,803.25
2023-04-27T09:38:07.811Z,802.77
2023-04-27T09:39:03.278Z,801.80
2023-04-27T09:39:59.048Z,861.29
2023-04-27T09:40:54.215Z,913.13
2023-04-27T09:41:49.705Z,892.38
2023-04-27T09:42:44.953Z,853.58
2023-04-27T09:43:40.453Z,846.54
2023-04-27T09:44:35.813Z,824.58
2023-04-27T09:45:31.533Z,804.70
2023-04-27T09:46:26.896Z,601.84
2023-04-27T09:47:22.416Z,571.41
2023-04-27T09:48:17.797Z,669.51
2023-04-27T09:49:13.294Z,679.06
2023-04-27T09:50:08.792Z,702.67
2023-04-27T09:51:04.020Z,698.26
2023-04-27T09:51:59.657Z,671.53
2023-04-27T09:52:55.007Z,651.84
2023-04-27T09:53:50.435Z,670.86
2023-04-27T09:54:45.829Z,709.40
2023-04-27T09:55:41.288Z,758.95
2023-04-27T09:56:36.671Z,826.62
2023-04-27T09:57:32.209Z,878.29
2023-04-27T09:58:27.543Z,882.94
2023-04-27T09:59:23.008Z,917.53
2023-04-27T10:00:18.528Z,963.20
2023-04-27T10:01:13.988Z,978.02
2023-04-27T10:02:23.595Z,967.39
2023-04-27T10:03:05.964Z,1002.25
2023-04-27T10:04:00.776Z,1020.64
2023-04-27T10:04:55.973Z,996.27
2023-04-27T10:05:51.350Z,1146.91
2023-04-27T10:06:46.743Z,1272.64
2023-04-27T10:07:42.204Z,1345.77
2023-04-27T10:08:37.796Z,1232.69
2023-04-27T10:09:33.092Z,1106.96
2023-04-27T10:10:28.525Z,1240.71
2023-04-27T10:11:23.957Z,1418.70
2023-04-27T10:12:19.354Z,1523.97
2023-04-27T10:13:14.696Z,1558.67
2023-04-27T10:14:10.135Z,1526.59
2023-04-27T10:15:05.596Z,1501.69
2023-04-27T10:16:00.960Z,1556.85
2023-04-27T10:16:56.445Z,1424.76
2023-04-27T10:17:51.862Z,1467.03
2023-04-27T10:18:47.389Z,1446.37
2023-04-27T10:19:42.772Z,1568.74
2023-04-27T10:20:38.311Z,1729.28
2023-04-27T10:21:33.552Z,1831.28
2023-04-27T10:22:28.980Z,1923.63
2023-04-27T10:23:24.228Z,2013.57
2023-04-27T10:24:19.668Z,2050.69
2023-04-27T10:25:15.074Z,1964.68
2023-04-27T10:26:10.464Z,1986.61
2023-04-27T10:27:05.889Z,1892.28
2023-04-27T10:28:01.346Z,1807.72
2023-04-27T10:28:56.745Z,1856.74
2023-04-27T10:29:52.158Z,1462.21
2023-04-27T10:30:47.714Z,1496.64
2023-04-27T10:31:43.103Z,1645.10
2023-04-27T10:32:38.501Z,1826.27
2023-04-27T10:33:33.777Z,1892.28
2023-04-27T10:34:29.180Z,1971.94
2023-04-27T10:35:24.615Z,2049.12
2023-04-27T10:36:20.113Z,1969.03
2023-04-27T10:37:15.508Z,1939.00
2023-04-27T10:38:11.116Z,1884.26
2023-04-27T10:39:06.595Z,1789.54
2023-04-27T10:40:01.834Z,1811.40
2023-04-27T10:40:57.294Z,1774.09
2023-04-27T10:41:52.732Z,1702.81
2023-04-27T10:42:48.127Z,1694.16
2023-04-27T10:43:43.389Z,1733.77
2023-04-27T10:44:38.925Z,1826.27
2023-04-27T10:45:34.325Z,1840.11
2023-04-27T10:46:29.698Z,1847.75
2023-04-27T10:47:25.054Z,1788.35
2023-04-27T10:48:20.482Z,1591.18
2023-04-27T10:49:15.984Z,1598.80
2023-04-27T10:50:11.261Z,1558.67
2023-04-27T10:51:06.661Z,1551.42
2023-04-27T10:52:02.125Z,1508.47
2023-04-27T10:52:58.801Z,1508.47
2023-04-27T10:53:53.023Z,1552.33
2023-04-27T10:54:48.560Z,1594.98
2023-04-27T10:55:43.721Z,1630.04
2023-04-27T10:56:39.098Z,1597.85
2023-04-27T10:57:34.504Z,1541.57
2023-04-27T10:58:41.538Z,1631.03
2023-04-27T10:59:26.362Z,1640.05
2023-04-27T11:00:20.833Z,1649.17
2023-04-27T11:01:16.410Z,1719.25
2023-04-27T11:02:11.640Z,1813.86
2023-04-27T11:03:07.231Z,1835.05
2023-04-27T11:04:02.485Z,1546.03
2023-04-27T11:04:57.982Z,1460.61
2023-04-27T11:05:53.222Z,1510.18
2023-04-27T11:06:48.634Z,1591.18
2023-04-27T11:07:44.040Z,1710.44
2023-04-27T11:08:39.681Z,1751.97
2023-04-27T11:09:35.073Z,1409.71
2023-04-27T11:10:30.513Z,1380.56
2023-04-27T11:11:25.832Z,1328.36
2023-04-27T11:12:21.373Z,1181.42
2023-04-27T11:13:16.748Z,1396.44
2023-04-27T11:14:12.286Z,1563.23
2023-04-27T11:15:07.733Z,1340.36
2023-04-27T11:16:03.037Z,800.36
2023-04-27T11:16:58.564Z,535.61
2023-04-27T11:17:54.038Z,590.12
2023-04-27T11:18:49.610Z,663.52
2023-04-27T11:19:45.047Z,802.28
2023-04-27T11:20:40.747Z,961.12
2023-04-27T11:21:35.996Z,1074.88
2023-04-27T11:22:31.015Z,1211.43
2023-04-27T11:23:26.032Z,1343.06
2023-04-27T11:24:21.041Z,1463.82
2023-04-27T11:25:16.228Z,1556.85
2023-04-27T11:26:11.086Z,1426.28
2023-04-27T11:27:06.039Z,1523.10
2023-04-27T11:28:01.213Z,1603.60
2023-04-27T11:28:56.206Z,1424.76
2023-04-27T11:29:51.466Z,1504.22
2023-04-27T11:30:46.625Z,1645.10